Time;durP1;ratioP1;P1;durP2;ratioP2;P2;SDS_P1;SDS_P2;PMS_P1;PMS_P2;Temp;Humidity;BMP_temperature;BMP_pressure;BME280_temperature;BME280_humidity;BME280_pressure;Samples;Min_cycle;Max_cycle;Signal;HPM_P1;HPM_P2
2022/03/02 00:01:57;;;;;;;;;47.75;37.50;;;;;10.56;44.27;101900.88;5077971;27;45334;-80
2022/03/02 00:04:25;;;;;;;;;46.25;37.50;;;;;10.39;44.38;101879.56;5082496;27;45111;-67
2022/03/02 00:06:50;;;;;;;;;46.75;37.50;;;;;10.43;44.72;101887.47;5077186;27;45871;-75
2022/03/02 00:09:17;;;;;;;;;39.75;34.25;;;;;10.50;44.39;101903.34;5085876;27;45476;-65
2022/03/02 00:11:43;;;;;;;;;47.00;37.25;;;;;10.59;44.83;101897.41;5039668;28;45832;-65
2022/03/02 00:14:09;;;;;;;;;46.25;38.00;;;;;10.27;44.40;101828.63;5074976;27;45677;-66
2022/03/02 00:16:38;;;;;;;;;49.25;39.00;;;;;10.39;44.43;101847.22;5075143;27;45417;-65
2022/03/02 00:19:09;;;;;;;;;50.50;39.75;;;;;10.48;44.26;101855.28;5074256;27;45916;-65
2022/03/02 00:21:35;;;;;;;;;48.50;36.00;;;;;10.58;44.23;101872.97;5073910;27;45674;-67
2022/03/02 00:24:08;;;;;;;;;49.25;37.75;;;;;10.28;43.76;101828.69;5078156;28;45528;-70
2022/03/02 00:26:38;;;;;;;;;47.00;33.50;;;;;10.17;44.20;101817.06;5074575;28;45432;-68
2022/03/02 00:29:05;;;;;;;;;49.00;39.75;;;;;10.34;44.48;101849.75;5056054;28;45808;-65
2022/03/02 00:31:34;;;;;;;;;52.75;44.00;;;;;10.37;44.57;101854.19;5077188;28;45384;-76
2022/03/02 00:33:59;;;;;;;;;50.25;39.50;;;;;10.12;44.34;101811.75;5078142;28;45556;-67
2022/03/02 00:36:25;;;;;;;;;50.25;39.50;;;;;10.43;44.58;101863.91;5073787;28;45777;-80
2022/03/02 00:38:54;;;;;;;;;48.25;39.00;;;;;10.39;44.69;101870.81;5085229;27;45647;-65
2022/03/02 00:41:23;;;;;;;;;46.00;36.50;;;;;10.35;44.59;101862.00;5096143;27;45461;-76
2022/03/02 00:43:49;;;;;;;;;48.25;35.75;;;;;9.84;44.69;101776.25;5088944;27;45484;-66
2022/03/02 00:46:15;;;;;;;;;50.75;38.25;;;;;10.35;44.80;101859.41;5077102;27;45592;-74
2022/03/02 00:48:41;;;;;;;;;49.75;38.25;;;;;10.38;44.70;101861.19;5093525;27;46523;-71
2022/03/02 00:51:10;;;;;;;;;50.50;37.75;;;;;10.11;44.73;101815.22;5097805;27;46434;-74
2022/03/02 00:53:39;;;;;;;;;50.75;36.25;;;;;10.32;44.54;101853.19;5098204;27;45737;-70
2022/03/02 00:56:05;;;;;;;;;49.00;36.00;;;;;10.18;44.55;101840.69;5095813;27;45481;-70
2022/03/02 00:58:31;;;;;;;;;50.00;38.75;;;;;10.35;44.63;101856.78;5094265;27;45407;-66
2022/03/02 01:00:57;;;;;;;;;52.25;39.75;;;;;10.13;44.41;101821.38;5097480;27;45437;-66
2022/03/02 01:03:25;;;;;;;;;48.00;39.25;;;;;10.14;44.17;101814.41;5100996;27;45537;-74
2022/03/02 01:05:54;;;;;;;;;56.25;42.25;;;;;10.35;44.45;101853.28;5097538;27;45627;-68
2022/03/02 01:08:19;;;;;;;;;50.00;39.25;;;;;10.25;44.67;101838.16;5079682;27;45260;-66
2022/03/02 01:10:45;;;;;;;;;52.75;41.50;;;;;10.33;44.96;101854.97;5097971;27;45808;-70
2022/03/02 01:13:11;;;;;;;;;52.25;43.00;;;;;10.33;44.68;101858.47;5100079;27;46058;-74
2022/03/02 01:15:37;;;;;;;;;49.50;38.00;;;;;10.32;44.52;101848.88;5097985;27;45323;-64
2022/03/02 01:18:04;;;;;;;;;44.50;33.75;;;;;10.37;44.60;101847.22;5098030;27;45931;-67
2022/03/02 01:20:44;;;;;;;;;52.00;39.25;;;;;10.34;44.53;101844.50;5102323;27;45653;-69
2022/03/02 01:23:11;;;;;;;;;46.50;40.50;;;;;10.29;44.53;101840.03;5099754;27;45440;-66
2022/03/02 01:25:37;;;;;;;;;50.00;39.25;;;;;10.32;44.31;101837.47;5077319;27;45339;-67
2022/03/02 01:28:04;;;;;;;;;49.00;37.00;;;;;10.17;44.69;101823.19;5099653;27;45428;-66
2022/03/02 01:30:29;;;;;;;;;51.00;40.25;;;;;9.68;44.50;101742.75;5082057;27;45447;-67
2022/03/02 01:32:55;;;;;;;;;55.25;42.50;;;;;9.39;45.07;101693.28;5102843;27;45310;-69
2022/03/02 01:35:22;;;;;;;;;49.00;38.25;;;;;10.18;44.98;101835.44;5077564;28;45363;-78
2022/03/02 01:37:50;;;;;;;;;43.25;35.25;;;;;10.04;44.50;101815.06;5085498;27;45524;-76
2022/03/02 01:40:16;;;;;;;;;48.00;37.00;;;;;9.88;44.83;101771.97;5096641;27;45554;-77
2022/03/02 01:42:43;;;;;;;;;47.25;38.00;;;;;10.19;44.96;101826.72;5102831;27;45614;-80
2022/03/02 01:45:11;;;;;;;;;47.75;39.00;;;;;9.90;44.78;101771.16;5097482;27;45339;-79
2022/03/02 01:47:37;;;;;;;;;52.00;38.50;;;;;10.02;44.59;101787.97;5079824;27;45461;-77
2022/03/02 01:50:05;;;;;;;;;48.75;37.00;;;;;10.27;44.49;101828.63;5101203;27;45496;-77
2022/03/02 01:52:31;;;;;;;;;47.00;35.50;;;;;10.22;44.25;101819.78;5100892;27;45416;-77
2022/03/02 01:54:57;;;;;;;;;41.50;35.25;;;;;9.94;44.63;101767.75;5103605;27;45416;-80
2022/03/02 01:57:23;;;;;;;;;50.75;41.25;;;;;10.26;44.25;101814.66;5101205;27;45226;-78
2022/03/02 01:59:58;;;;;;;;;52.00;38.50;;;;;10.28;44.90;101817.31;5097023;27;45510;-78
2022/03/02 02:02:24;;;;;;;;;54.00;40.50;;;;;10.10;44.76;101789.00;5096753;27;45501;-79
2022/03/02 02:04:50;;;;;;;;;48.00;39.00;;;;;10.18;44.66;101814.50;5098852;27;45387;-76
2022/03/02 02:07:15;;;;;;;;;51.00;38.75;;;;;9.76;44.54;101746.44;5100806;27;45477;-77
2022/03/02 02:09:42;;;;;;;;;45.50;37.00;;;;;10.18;44.97;101809.25;5101806;27;45521;-76
2022/03/02 02:12:07;;;;;;;;;44.00;35.75;;;;;10.21;44.80;101805.81;5101111;27;45676;-75
2022/03/02 02:14:33;;;;;;;;;48.50;38.00;;;;;10.18;44.72;101796.16;5096808;27;45365;-73
2022/03/02 02:16:59;;;;;;;;;45.00;37.75;;;;;9.83;45.03;101729.13;5096621;27;45404;-71
2022/03/02 02:19:25;;;;;;;;;52.25;38.75;;;;;9.93;44.75;101744.16;5099242;27;45841;-73
2022/03/02 02:21:51;;;;;;;;;43.00;35.75;;;;;10.14;44.47;101768.16;5101359;27;46055;-68
2022/03/02 02:24:17;;;;;;;;;44.50;35.50;;;;;10.19;44.56;101784.84;5098020;27;45393;-76
2022/03/02 02:26:42;;;;;;;;;47.50;36.25;;;;;10.01;44.76;101757.41;5096591;27;45350;-78
2022/03/02 02:29:09;;;;;;;;;55.25;41.75;;;;;10.23;44.37;101787.50;5097274;27;45549;-75
2022/03/02 02:31:35;;;;;;;;;51.00;39.50;;;;;10.21;44.52;101782.25;5096673;27;45702;-80
2022/03/02 02:34:00;;;;;;;;;47.50;37.50;;;;;10.18;44.44;101787.44;5096601;27;45496;-74
2022/03/02 02:36:26;;;;;;;;;46.00;35.50;;;;;10.07;44.66;101755.78;5077769;27;45448;-77
2022/03/02 02:38:54;;;;;;;;;51.75;40.50;;;;;10.15;44.74;101767.28;5100109;27;45427;-77
2022/03/02 02:41:20;;;;;;;;;46.50;35.50;;;;;9.79;44.71;101711.59;5095824;27;45355;-78
2022/03/02 02:43:46;;;;;;;;;46.00;38.00;;;;;9.95;44.79;101737.22;5095689;27;45824;-75
2022/03/02 02:46:12;;;;;;;;;49.25;40.00;;;;;9.86;44.39;101716.97;5095658;27;45520;-75
2022/03/02 02:48:39;;;;;;;;;47.00;38.00;;;;;10.12;44.60;101764.63;5096459;27;45521;-78
2022/03/02 02:51:06;;;;;;;;;43.00;35.75;;;;;10.02;44.76;101741.72;5096029;27;46167;-79
2022/03/02 02:53:32;;;;;;;;;48.50;36.75;;;;;10.04;44.71;101737.41;5096493;27;45582;-78
2022/03/02 02:55:57;;;;;;;;;49.00;35.75;;;;;9.93;44.81;101718.00;5095795;27;45503;-75
2022/03/02 02:58:23;;;;;;;;;50.75;39.00;;;;;10.06;44.92;101740.97;5096795;27;45635;-69
2022/03/02 03:00:50;;;;;;;;;49.00;39.00;;;;;9.96;45.04;101733.75;5098816;27;45742;-79
2022/03/02 03:03:16;;;;;;;;;51.50;40.00;;;;;9.87;44.77;101707.38;5100299;27;45452;-79
2022/03/02 03:05:44;;;;;;;;;48.25;38.25;;;;;9.94;44.94;101736.34;5099940;27;45298;-78
2022/03/02 03:08:11;;;;;;;;;45.25;36.25;;;;;9.85;45.09;101719.59;5078138;27;45453;-71
2022/03/02 03:10:38;;;;;;;;;48.75;37.50;;;;;9.89;45.24;101727.50;5096166;27;46211;-74
2022/03/02 03:13:04;;;;;;;;;45.25;36.50;;;;;9.36;45.11;101634.84;5098598;27;45393;-77
2022/03/02 03:15:31;;;;;;;;;47.00;38.75;;;;;9.87;45.08;101718.75;5096862;27;45318;-77
2022/03/02 03:17:56;;;;;;;;;46.00;36.75;;;;;9.71;45.04;101695.75;5106014;27;45441;-67
2022/03/02 03:20:26;;;;;;;;;47.50;36.25;;;;;9.88;45.27;101724.88;5085124;27;45494;-78
2022/03/02 03:22:53;;;;;;;;;38.25;30.75;;;;;9.77;45.07;101707.22;5096244;27;45913;-75
2022/03/02 03:25:19;;;;;;;;;52.25;40.00;;;;;9.86;44.96;101729.19;5096233;27;45579;-75
2022/03/02 03:27:45;;;;;;;;;48.00;38.25;;;;;9.73;44.97;101713.22;5097621;27;45357;-71
2022/03/02 03:30:14;;;;;;;;;49.75;39.25;;;;;9.61;45.23;101697.28;5097986;27;45438;-74
2022/03/02 03:32:41;;;;;;;;;47.25;38.50;;;;;9.72;45.28;101721.91;5084860;27;45538;-74
2022/03/02 03:35:08;;;;;;;;;47.75;36.50;;;;;9.49;45.37;101682.22;5100021;27;45422;-78
2022/03/02 03:37:34;;;;;;;;;49.25;38.00;;;;;9.78;44.84;101729.03;5100311;27;45439;-78
2022/03/02 03:40:00;;;;;;;;;49.00;38.00;;;;;9.35;45.15;101649.66;5082604;27;46871;-78
2022/03/02 03:42:26;;;;;;;;;52.50;39.00;;;;;9.66;44.54;101694.78;5100109;27;45872;-79
2022/03/02 03:44:51;;;;;;;;;46.75;39.50;;;;;9.52;45.02;101671.81;5079149;27;45353;-76
2022/03/02 03:47:17;;;;;;;;;48.75;38.00;;;;;9.77;44.92;101717.69;5101309;27;45454;-79
2022/03/02 03:49:43;;;;;;;;;48.25;39.50;;;;;9.76;44.86;101702.81;5103637;27;45454;-77
2022/03/02 03:52:09;;;;;;;;;50.75;40.50;;;;;9.77;45.08;101693.22;5103788;27;45455;-78
2022/03/02 03:54:36;;;;;;;;;48.25;38.25;;;;;9.71;45.32;101691.38;5100102;27;45444;-70
2022/03/02 03:57:07;;;;;;;;;52.00;39.75;;;;;9.70;44.74;101693.97;5100186;27;45326;-78
2022/03/02 03:59:33;;;;;;;;;51.50;39.75;;;;;9.45;45.10;101656.84;5082648;27;47312;-75
2022/03/02 04:02:01;;;;;;;;;49.25;38.75;;;;;9.25;45.06;101632.84;5080756;27;45601;-79
2022/03/02 04:04:27;;;;;;;;;48.50;38.50;;;;;9.57;45.13;101681.50;5100815;27;45508;-78
2022/03/02 04:06:53;;;;;;;;;48.25;38.50;;;;;9.73;45.38;101710.63;5103778;27;45515;-77
2022/03/02 04:09:19;;;;;;;;;47.75;37.25;;;;;9.55;45.11;101676.22;5104313;27;45294;-78
2022/03/02 04:11:46;;;;;;;;;48.00;40.00;;;;;9.47;44.83;101657.75;5101038;27;45358;-76
2022/03/02 04:14:12;;;;;;;;;49.25;40.00;;;;;9.65;44.91;101699.09;5081349;27;45409;-74
2022/03/02 04:16:38;;;;;;;;;48.25;37.50;;;;;9.69;45.04;101702.66;5099052;27;45478;-78
2022/03/02 04:19:04;;;;;;;;;48.25;37.00;;;;;9.70;44.97;101707.91;5099813;27;45590;-78
2022/03/02 04:21:30;;;;;;;;;48.00;36.25;;;;;9.69;44.96;101703.53;5099594;27;45354;-78
2022/03/02 04:23:56;;;;;;;;;47.25;37.50;;;;;9.49;45.04;101663.91;5098612;27;45446;-76
2022/03/02 04:26:22;;;;;;;;;45.00;36.50;;;;;9.66;45.01;101686.91;5099530;27;45303;-76
2022/03/02 04:28:48;;;;;;;;;51.50;40.50;;;;;9.69;45.02;101695.69;5101078;27;45594;-78
2022/03/02 04:31:14;;;;;;;;;43.75;33.50;;;;;9.66;45.07;101695.66;5100288;27;45236;-77
2022/03/02 04:33:39;;;;;;;;;48.75;39.00;;;;;9.58;45.17;101680.63;5100517;27;45523;-77
2022/03/02 04:36:06;;;;;;;;;45.25;34.75;;;;;9.21;45.34;101622.34;5106958;27;45306;-74
2022/03/02 04:38:32;;;;;;;;;52.25;40.50;;;;;9.24;45.37;101628.50;5093819;27;46053;-79
2022/03/02 04:40:58;;;;;;;;;49.00;40.00;;;;;9.36;45.22;101647.91;5071823;27;45553;-75
2022/03/02 04:43:24;;;;;;;;;53.25;38.50;;;;;9.37;45.09;101647.94;5101523;27;45396;-78
2022/03/02 04:45:51;;;;;;;;;48.25;38.50;;;;;9.26;44.90;101628.53;5102156;27;45359;-79
2022/03/02 04:48:18;;;;;;;;;53.25;39.00;;;;;9.43;44.97;101653.31;5100909;27;45453;-78
2022/03/02 04:50:44;;;;;;;;;49.75;39.25;;;;;9.41;44.45;101664.59;5101433;27;45660;-73
2022/03/02 04:53:10;;;;;;;;;46.75;37.75;;;;;9.33;44.93;101636.53;5103515;27;45398;-76
2022/03/02 04:55:36;;;;;;;;;45.25;37.00;;;;;9.41;44.73;101643.66;5114129;27;45263;-71
2022/03/02 04:58:03;;;;;;;;;46.50;37.50;;;;;9.21;44.91;101615.38;5110359;27;46297;-79
2022/03/02 05:00:34;;;;;;;;;49.25;38.50;;;;;9.21;44.56;101615.38;5103926;27;45499;-74
2022/03/02 05:03:12;;;;;;;;;48.75;38.50;;;;;9.58;44.89;101671.03;5105453;27;45270;-76
2022/03/02 05:05:49;;;;;;;;;45.50;36.00;;;;;9.58;44.91;101668.44;5105421;27;45242;-78
2022/03/02 05:08:14;;;;;;;;;49.25;39.75;;;;;9.43;44.76;101628.91;5104848;27;46239;-79
2022/03/02 05:11:00;;;;;;;;;50.50;38.00;;;;;9.61;44.92;101663.28;5104686;27;45318;-76
2022/03/02 05:13:28;;;;;;;;;49.75;40.75;;;;;9.61;45.13;101671.13;5100667;27;45681;-78
2022/03/02 05:15:58;;;;;;;;;46.25;38.00;;;;;9.52;44.96;101657.84;5099688;27;45569;-74
2022/03/02 05:18:34;;;;;;;;;48.75;38.75;;;;;9.42;45.26;101645.41;5100279;27;45491;-78
2022/03/02 05:21:00;;;;;;;;;47.75;36.75;;;;;9.48;45.23;101661.25;5099719;27;45538;-78
2022/03/02 05:23:36;;;;;;;;;38.50;31.25;;;;;9.20;44.81;101615.31;5099987;27;45519;-80
2022/03/02 05:26:05;;;;;;;;;44.75;38.00;;;;;9.21;45.10;101617.97;5101286;27;45472;-80
2022/03/02 05:28:31;;;;;;;;;47.00;38.50;;;;;8.80;45.00;101552.59;5101934;27;46524;-78
2022/03/02 05:31:00;;;;;;;;;48.75;38.50;;;;;8.82;45.01;101540.47;5085675;27;45591;-79
2022/03/02 05:33:30;;;;;;;;;49.25;40.25;;;;;9.43;45.18;101652.44;5104282;27;45491;-78
2022/03/02 05:35:56;;;;;;;;;51.75;39.75;;;;;9.26;45.24;101629.41;5083186;27;45422;-67
2022/03/02 05:38:32;;;;;;;;;48.25;39.25;;;;;9.26;45.04;101625.94;5104152;27;45558;-79
2022/03/02 05:40:58;;;;;;;;;48.50;37.00;;;;;9.26;45.21;101618.09;5100154;27;45677;-73
2022/03/02 05:43:23;;;;;;;;;50.25;38.25;;;;;9.07;45.35;101586.31;5099831;27;45429;-79
2022/03/02 05:45:49;;;;;;;;;51.25;38.25;;;;;9.09;45.43;101595.06;5102242;27;45338;-79
2022/03/02 05:48:15;;;;;;;;;47.25;38.75;;;;;9.19;45.12;101605.72;5098813;27;45882;-79
2022/03/02 05:50:41;;;;;;;;;48.75;36.25;;;;;9.07;45.36;101585.44;5081113;27;45809;-79
2022/03/02 05:53:09;;;;;;;;;47.25;38.00;;;;;9.42;45.12;101650.66;5078490;28;45386;-79
2022/03/02 05:55:35;;;;;;;;;48.50;40.00;;;;;9.37;45.59;101640.09;5093115;27;45348;-66
2022/03/02 05:58:01;;;;;;;;;52.00;39.50;;;;;9.31;45.29;101632.13;5100880;27;45382;-74
2022/03/02 06:00:27;;;;;;;;;46.75;38.25;;;;;9.24;44.94;101619.78;5097390;27;45320;-78
2022/03/02 06:02:52;;;;;;;;;49.75;38.00;;;;;8.85;45.32;101556.22;5096788;27;45510;-76
2022/03/02 06:05:18;;;;;;;;;48.25;39.75;;;;;9.23;45.50;101629.34;5076577;28;45280;-79
2022/03/02 06:07:44;;;;;;;;;52.25;40.25;;;;;9.29;45.54;101650.38;5076341;28;45779;-78
2022/03/02 06:10:11;;;;;;;;;51.75;38.75;;;;;8.85;45.84;101584.06;5076340;28;45450;-75
2022/03/02 06:12:37;;;;;;;;;48.75;39.25;;;;;9.08;45.93;101634.22;5076706;28;45608;-79
2022/03/02 06:15:04;;;;;;;;;55.50;42.00;;;;;9.03;46.23;101638.47;5077877;28;45785;-78
2022/03/02 06:17:30;;;;;;;;;50.00;39.75;;;;;8.74;46.82;101598.63;5076654;28;46351;-77
2022/03/02 06:19:56;;;;;;;;;51.75;39.25;;;;;8.72;46.77;101592.47;5076618;28;45257;-78
2022/03/02 06:22:25;;;;;;;;;45.00;36.25;;;;;8.89;46.67;101618.13;5080495;28;45210;-78
2022/03/02 06:24:54;;;;;;;;;52.50;38.50;;;;;8.81;46.85;101598.78;5079557;28;45414;-76
2022/03/02 06:27:21;;;;;;;;;52.50;38.75;;;;;8.89;46.68;101623.34;5086760;28;45533;-79
2022/03/02 06:29:47;;;;;;;;;47.00;38.00;;;;;8.74;47.12;101594.28;5089148;28;45488;-74
2022/03/02 06:32:13;;;;;;;;;44.00;36.75;;;;;8.56;46.93;101554.66;5093979;28;45335;-77
2022/03/02 06:34:39;;;;;;;;;49.25;37.75;;;;;8.74;47.19;101586.44;5086207;28;45349;-79
2022/03/02 06:37:06;;;;;;;;;45.50;38.00;;;;;9.09;46.49;101636.00;5078194;28;46415;-68
2022/03/02 06:39:32;;;;;;;;;47.75;34.50;;;;;8.81;46.63;101580.50;5077695;28;45432;-76
2022/03/02 06:42:04;;;;;;;;;46.25;36.75;;;;;8.95;46.75;101606.06;5093235;27;45504;-78
2022/03/02 06:44:52;;;;;;;;;48.50;40.25;;;;;8.82;46.47;101574.44;5085452;27;45497;-71
2022/03/02 06:47:28;;;;;;;;;49.50;39.75;;;;;9.21;46.37;101643.25;5066177;27;46794;-77
2022/03/02 06:50:08;;;;;;;;;43.75;37.25;;;;;9.22;46.31;101642.38;5076984;27;45689;-75
2022/03/02 06:52:42;;;;;;;;;45.50;35.25;;;;;8.82;46.09;101584.00;5074453;27;45510;-78
2022/03/02 06:55:12;;;;;;;;;49.75;39.00;;;;;9.21;45.92;101644.13;5103011;27;45268;-77
2022/03/02 06:57:40;;;;;;;;;43.00;35.00;;;;;9.17;46.10;101637.06;5082471;27;45544;-76
2022/03/02 07:00:15;;;;;;;;;46.50;36.00;;;;;8.99;45.92;101619.22;5094451;27;45535;-71
2022/03/02 07:03:05;;;;;;;;;49.00;40.00;;;;;9.20;45.63;101649.31;5077108;27;45854;-76
2022/03/02 07:05:32;;;;;;;;;50.00;39.00;;;;;8.99;46.13;101618.34;5085013;27;45391;-76
2022/03/02 07:08:00;;;;;;;;;49.50;37.75;;;;;8.81;46.26;101584.84;5093894;27;46306;-76
2022/03/02 07:10:26;;;;;;;;;46.50;36.25;;;;;9.17;45.98;101644.88;5083823;27;45343;-78
2022/03/02 07:12:53;;;;;;;;;54.00;40.00;;;;;9.13;46.09;101637.81;5094566;27;45465;-71
2022/03/02 07:15:19;;;;;;;;;47.00;37.50;;;;;9.23;46.11;101657.19;5095726;27;45684;-78
2022/03/02 07:17:44;;;;;;;;;50.00;38.75;;;;;8.92;45.79;101601.63;5095406;27;45479;-75
2022/03/02 07:20:11;;;;;;;;;47.00;38.75;;;;;9.12;45.72;101639.56;5088112;27;45426;-77
2022/03/02 07:22:47;;;;;;;;;46.50;37.00;;;;;9.22;45.73;101658.06;5078496;27;45450;-76
2022/03/02 07:25:25;;;;;;;;;46.25;38.00;;;;;8.94;45.72;101614.75;5075656;28;45497;-70
2022/03/02 07:27:50;;;;;;;;;45.00;37.00;;;;;9.02;45.65;101621.91;5089338;27;46223;-76
2022/03/02 07:30:17;;;;;;;;;52.50;41.75;;;;;8.95;45.55;101630.47;5082601;27;45344;-75
2022/03/02 07:32:45;;;;;;;;;49.75;39.50;;;;;8.74;45.81;101612.56;5074913;27;45503;-79
2022/03/02 07:35:12;;;;;;;;;47.00;37.50;;;;;8.97;46.51;101662.75;5084404;27;45420;-73
2022/03/02 07:37:39;;;;;;;;;53.25;41.75;;;;;8.90;46.75;101664.31;5087176;27;45741;-76
2022/03/02 07:40:07;;;;;;;;;46.75;38.50;;;;;8.32;46.68;101570.59;5095424;27;45873;-66
2022/03/02 07:42:33;;;;;;;;;49.00;39.75;;;;;8.88;46.61;101663.41;5099254;27;45533;-75
2022/03/02 07:44:59;;;;;;;;;51.00;40.75;;;;;8.44;46.79;101590.06;5090310;27;45486;-72
2022/03/02 07:47:25;;;;;;;;;50.25;40.00;;;;;8.43;46.61;101590.06;5081260;27;45573;-76
2022/03/02 07:49:52;;;;;;;;;48.50;37.00;;;;;8.79;46.85;101644.00;5057063;28;45444;-76
2022/03/02 07:52:21;;;;;;;;;51.00;39.75;;;;;8.79;47.23;101638.78;5075083;28;45477;-66
2022/03/02 07:54:57;;;;;;;;;55.50;41.00;;;;;8.58;46.84;101613.91;5077190;28;45380;-76
2022/03/02 07:57:24;;;;;;;;;49.75;37.75;;;;;8.56;46.99;101613.00;5082640;27;45405;-77
2022/03/02 07:59:53;;;;;;;;;49.75;38.00;;;;;8.70;47.05;101616.81;5099369;27;45491;-77
2022/03/02 08:02:23;;;;;;;;;43.00;35.75;;;;;9.00;46.90;101647.13;5096119;27;45377;-79
2022/03/02 08:04:53;;;;;;;;;47.25;38.25;;;;;8.90;46.60;101614.69;5099706;27;45347;-78
2022/03/02 08:07:20;;;;;;;;;49.25;38.50;;;;;8.93;46.78;101610.38;5106449;27;45501;-78
2022/03/02 08:09:46;;;;;;;;;51.75;39.25;;;;;8.80;46.52;101575.25;5108107;27;45079;-74
2022/03/02 08:12:26;;;;;;;;;49.00;38.25;;;;;8.89;46.35;101585.91;5100664;27;45296;-78
2022/03/02 08:14:52;;;;;;;;;52.00;38.00;;;;;9.15;46.30;101615.22;5096276;27;45407;-77
2022/03/02 08:17:21;;;;;;;;;47.00;38.00;;;;;9.39;46.07;101640.13;5095917;27;45998;-80
2022/03/02 08:19:47;;;;;;;;;53.00;41.50;;;;;9.33;46.04;101633.06;5099006;27;45470;-79
2022/03/02 08:22:17;;;;;;;;;50.50;38.25;;;;;9.45;46.10;101641.16;5099401;27;45252;-78
2022/03/02 08:24:46;;;;;;;;;49.25;38.50;;;;;9.22;46.16;101603.16;5099522;27;46097;-78
2022/03/02 08:27:14;;;;;;;;;49.00;38.00;;;;;9.51;45.74;101641.25;5098628;27;45978;-78
2022/03/02 08:29:40;;;;;;;;;48.25;39.50;;;;;9.33;45.71;101605.16;5095107;27;45838;-75
2022/03/02 08:32:08;;;;;;;;;51.00;40.25;;;;;9.43;45.54;101614.09;5094593;27;46132;-74
2022/03/02 08:34:34;;;;;;;;;53.50;41.00;;;;;9.57;45.39;101631.81;5095341;27;45547;-80
2022/03/02 08:37:01;;;;;;;;;50.25;38.75;;;;;9.63;45.50;101638.00;5076211;27;46459;-79
2022/03/02 08:39:27;;;;;;;;;50.75;39.25;;;;;9.69;45.57;101648.63;5095365;27;45560;-78
2022/03/02 08:41:54;;;;;;;;;52.50;40.50;;;;;9.70;45.48;101647.75;5095221;27;45531;-77
2022/03/02 08:44:21;;;;;;;;;49.25;38.50;;;;;9.25;45.09;101580.56;5098566;27;46180;-79
2022/03/02 08:46:48;;;;;;;;;49.25;40.25;;;;;9.61;44.53;101628.38;5094858;27;46120;-78
2022/03/02 08:49:15;;;;;;;;;48.50;39.00;;;;;9.69;44.90;101638.16;5078985;27;45751;-79
2022/03/02 08:51:41;;;;;;;;;52.75;40.00;;;;;9.87;44.89;101650.72;5099341;27;45436;-78
2022/03/02 08:54:11;;;;;;;;;62.00;48.75;;;;;9.78;44.67;101619.16;5077927;27;45406;-75
2022/03/02 08:56:38;;;;;;;;;54.75;43.00;;;;;9.96;44.85;101632.56;5095385;27;45988;-78
2022/03/02 08:59:05;;;;;;;;;73.00;61.00;;;;;10.07;44.36;101634.50;5076692;27;45369;-68
2022/03/02 09:01:31;;;;;;;;;66.00;52.00;;;;;10.25;44.09;101649.66;5095265;27;45344;-80
2022/03/02 09:04:02;;;;;;;;;57.50;45.25;;;;;10.34;44.23;101655.09;5094927;27;45665;-78
2022/03/02 09:06:28;;;;;;;;;50.50;42.75;;;;;10.18;43.76;101618.16;5076567;27;45468;-78
2022/03/02 09:08:57;;;;;;;;;47.75;39.00;;;;;10.41;43.73;101646.50;5095104;27;45414;-79
2022/03/02 09:11:23;;;;;;;;;52.75;41.75;;;;;10.01;43.30;101571.56;5098865;27;45404;-81
2022/03/02 09:13:50;;;;;;;;;53.25;42.00;;;;;10.17;42.86;101590.19;5098832;27;45464;-77
2022/03/02 09:16:17;;;;;;;;;48.75;39.25;;;;;10.04;42.96;101563.78;5098061;27;45567;-73
2022/03/02 09:18:44;;;;;;;;;45.75;37.25;;;;;10.31;42.82;101613.16;5095162;27;45712;-80
2022/03/02 09:21:13;;;;;;;;;50.50;39.50;;;;;10.49;42.93;101637.03;5094526;27;45377;-69
2022/03/02 09:23:40;;;;;;;;;48.75;36.75;;;;;10.18;42.52;101597.19;5096018;27;45493;-72
2022/03/02 09:26:13;;;;;;;;;55.00;40.25;;;;;9.99;42.50;101574.19;5097099;27;45669;-78
2022/03/02 09:28:41;;;;;;;;;45.50;37.50;;;;;10.26;42.50;101620.00;5097826;27;45247;-77
2022/03/02 09:31:09;;;;;;;;;48.50;38.25;;;;;10.22;42.85;101620.81;5097244;27;45309;-76
2022/03/02 09:33:36;;;;;;;;;48.50;38.50;;;;;10.16;42.71;101634.69;5097919;27;45801;-68
2022/03/02 09:36:11;;;;;;;;;44.75;38.25;;;;;9.96;42.52;101614.22;5100893;27;46139;-77
2022/03/02 09:38:40;;;;;;;;;48.50;36.50;;;;;9.73;42.54;101566.72;5098481;27;45870;-74
2022/03/02 09:41:09;;;;;;;;;45.50;37.00;;;;;10.02;42.99;101626.56;5110126;27;44914;-72
2022/03/02 09:43:36;;;;;;;;;40.75;33.00;;;;;10.07;43.04;101622.28;5105409;27;45350;-76
2022/03/02 09:46:07;;;;;;;;;54.25;40.25;;;;;10.14;43.26;101623.28;5100374;27;46127;-73
2022/03/02 09:48:35;;;;;;;;;54.75;40.25;;;;;10.12;43.07;101620.63;5106021;27;45478;-76
2022/03/02 09:51:04;;;;;;;;;48.50;38.25;;;;;10.11;42.97;101628.50;5100628;27;45396;-79
2022/03/02 09:53:32;;;;;;;;;58.00;42.00;;;;;10.12;42.88;101620.63;5101273;27;45349;-78
2022/03/02 09:56:02;;;;;;;;;49.25;37.00;;;;;10.04;43.11;101595.22;5098993;27;46075;-75
2022/03/02 09:58:28;;;;;;;;;49.00;37.50;;;;;10.29;42.75;101618.34;5100937;27;45357;-79
2022/03/02 10:00:59;;;;;;;;;42.50;33.75;;;;;10.10;42.60;101563.88;5083321;27;45392;-73
2022/03/02 10:03:36;;;;;;;;;47.75;38.00;;;;;10.33;42.42;101595.72;5100637;27;45480;-78
2022/03/02 10:06:05;;;;;;;;;42.50;32.00;;;;;10.56;42.16;101617.94;5097393;27;46451;-79
2022/03/02 10:08:35;;;;;;;;;40.25;34.75;;;;;10.16;42.15;101525.59;5097562;27;45521;-78
2022/03/02 10:11:06;;;;;;;;;41.75;33.50;;;;;10.54;41.90;101567.28;5097287;27;45384;-77
2022/03/02 10:13:33;;;;;;;;;46.75;37.50;;;;;10.11;42.07;101466.19;5097278;27;45385;-79
2022/03/02 10:16:04;;;;;;;;;44.50;35.50;;;;;11.10;41.61;101604.75;5100971;27;46114;-80
2022/03/02 10:18:34;;;;;;;;;34.50;33.25;;;;;11.35;41.13;101606.84;5099042;27;45459;-75
2022/03/02 10:21:02;;;;;;;;;47.75;39.75;;;;;11.39;41.19;101598.16;5097562;27;45645;-78
2022/03/02 10:23:41;;;;;;;;;51.00;37.75;;;;;11.52;40.67;101607.03;5100533;27;45400;-77
2022/03/02 10:26:18;;;;;;;;;51.50;42.00;;;;;11.72;39.95;101598.50;5077796;27;46927;-73
2022/03/02 10:28:51;;;;;;;;;48.75;39.50;;;;;11.97;39.86;101603.19;5096557;27;45362;-76
2022/03/02 10:31:47;;;;;;;;;40.50;32.75;;;;;12.38;39.45;101596.56;5099513;27;45362;-75
2022/03/02 10:34:28;;;;;;;;;39.00;35.00;;;;;12.81;38.80;101589.00;5078359;27;45295;-79
2022/03/02 10:37:17;;;;;;;;;30.75;30.75;;;;;13.15;38.43;101569.91;5096517;27;45990;-77
2022/03/02 10:40:06;;;;;;;;;48.25;41.50;;;;;13.69;37.32;101578.06;5077746;27;45509;-79
2022/03/02 10:42:40;;;;;;;;;52.50;43.00;;;;;14.08;36.40;101580.75;5078332;27;45393;-75
2022/03/02 10:45:16;;;;;;;;;55.00;41.75;;;;;14.29;36.00;101582.53;5095956;27;45677;-76
2022/03/02 10:47:54;;;;;;;;;44.50;35.75;;;;;14.47;35.41;101563.16;5096155;27;46025;-79
2022/03/02 10:50:21;;;;;;;;;48.75;36.00;;;;;15.05;34.64;101563.97;5100405;27;45421;-79
2022/03/02 10:52:48;;;;;;;;;43.00;36.50;;;;;15.45;33.68;101560.31;5106132;27;45558;-71
2022/03/02 10:55:14;;;;;;;;;40.00;34.50;;;;;15.88;33.58;101562.72;5100111;27;45447;-73
2022/03/02 10:57:40;;;;;;;;;37.75;31.75;;;;;16.32;33.21;101538.59;5099442;27;45653;-72
2022/03/02 11:00:16;;;;;;;;;40.75;33.25;;;;;16.88;32.25;101552.16;5103203;27;45330;-73
2022/03/02 11:02:45;;;;;;;;;45.00;35.50;;;;;17.13;31.36;101536.88;5098962;27;45312;-76
2022/03/02 11:05:17;;;;;;;;;36.50;31.75;;;;;17.75;31.26;101541.34;5098069;27;45377;-81
2022/03/02 11:07:42;;;;;;;;;35.00;32.00;;;;;17.90;30.63;101505.81;5078673;27;46360;-78
2022/03/02 11:10:11;;;;;;;;;42.00;34.50;;;;;18.13;30.01;101492.19;5097146;27;45432;-75
2022/03/02 11:12:42;;;;;;;;;47.00;35.75;;;;;18.57;29.42;101535.56;5098257;27;45374;-77
2022/03/02 11:15:08;;;;;;;;;38.00;32.75;;;;;18.94;29.66;101532.25;5096988;27;45659;-78
2022/03/02 11:17:36;;;;;;;;;43.75;34.50;;;;;18.75;28.95;101503.38;5102196;27;45715;-79
2022/03/02 11:20:10;;;;;;;;;44.50;35.50;;;;;18.61;28.87;101530.19;5104636;27;45384;-78